Arborg, Canada
Current Conditions -  °F | °C
As of 4:00 AM on Saturday 29 Nov 2014 (Local Time) from CYWG Reporting Station
Light Snow Light Snow  
Wind Chill:   Ceiling: 1900
Heat Index: 14°   Visibility: 1.5mi
Dew Point: 10°   Wind: 6mph
Humidity: 86%   Direction: 140°SE
Pressure: 29.51"   Gusts: NA
Location:  50.91°N, 97.22°W
Report Text: CYWG 291000Z 14005KT 1 1/2SM -SN OVC019 M10/M12 A2951 RMK SC8 SLP010
Loading
Personal Weather Stations






























Interactive Weather Map New forecast layout! Learn more

10-Day Weather Forecast

Advertisements
Track Severe Weather on mobile